Aplicació Alertes

Dades de l'estació automàtica Prades

?
?
Resum diari 22:30 TU
Dades diàries de l'estació meteorològica
Temperatura mitjana 0.0 °C
Temperatura màxima 4.4 °C 14:00 TU
Temperatura mínima -6.8 °C 7:30 TU
Humitat relativa mitjana 77%
Precipitació acumulada 0.0 mm
Gruix de neu màxim 85 cm
Ratxa màxima del vent (2 m) 21.6 km/h - 314º 15:05 TU
Irradiació solar global 9.0 MJ/m2

El tram horari està expressat en Temps Universal (TU). Cal sumar una hora en horari d'hivern i dues en horari d'estiu per passar a l'hora oficial.

Prades

Metadades estació meteorol´gica
Municipi Prades
Comarca Baix Camp
Altitud 928 m
Data alta 31.01.2013
Estat actual Operativa
Dades de període
Període
TU
TM
°C
TX
°C
TN
°C
HRM
%
PPT
mm
GN
cm
VVM (2 m)
km/h
DVM (2 m)
graus
VVX (2 m)
km/h
RS
W/m2
00:00 - 00:30 -1.5 -1.4 -1.6 95 0.0 (s/d) 0.7 315 4.3 0
00:30 - 01:00 -1.9 -1.7 -2.1 96 0.0 (s/d) 1.1 2 4.3 0
01:00 - 01:30 -2.3 -2.1 -2.5 96 0.0 (s/d) 1.4 360 5.0 0
01:30 - 02:00 -1.9 -1.7 -2.1 95 0.0 (s/d) 1.8 306 8.6 0
02:00 - 02:30 -2.1 -2.0 -2.2 94 0.0 (s/d) 0.7 331 5.4 0
02:30 - 03:00 -2.0 -1.9 -2.1 91 0.0 (s/d) 0.4 329 3.6 0
03:00 - 03:30 -1.9 -1.8 -2.0 89 0.0 (s/d) 0.7 1 4.3 0
03:30 - 04:00 -2.4 -1.9 -2.9 89 0.0 (s/d) 1.4 32 5.4 0
04:00 - 04:30 -2.7 -2.5 -3.1 92 0.0 84 2.5 316 11.9 0
04:30 - 05:00 -3.6 -3.0 -3.9 95 0.0 (s/d) 0.7 25 3.2 0
05:00 - 05:30 -3.1 -2.9 -3.8 94 0.0 (s/d) 3.2 326 11.5 0
05:30 - 06:00 -3.2 -3.0 -3.6 92 0.0 85 1.8 21 6.5 0
06:00 - 06:30 -4.2 -3.5 -5.1 92 0.0 (s/d) 1.4 69 5.4 0
06:30 - 07:00 -5.3 -4.5 -6.1 93 0.0 (s/d) 0.0 249 1.8 0
07:00 - 07:30 -6.4 -6.1 -6.8 93 0.0 (s/d) 0.0 120 2.2 5
07:30 - 08:00 -6.4 -5.9 -6.8 94 0.0 (s/d) 0.4 311 2.5 15
08:00 - 08:30 -4.3 -1.7 -5.8 91 0.0 (s/d) 2.5 321 13.0 75
08:30 - 09:00 -1.2 -0.5 -1.7 80 0.0 (s/d) 4.7 319 14.8 189
09:00 - 09:30 0.3 1.0 -0.7 71 0.0 (s/d) 3.2 348 9.7 287
09:30 - 10:00 1.7 2.5 1.1 61 0.0 (s/d) 5.0 311 11.9 335
10:00 - 10:30 3.2 3.6 2.4 53 0.0 (s/d) 4.3 323 13.3 384
10:30 - 11:00 3.3 3.7 2.6 58 0.0 (s/d) 6.1 290 12.2 416
11:00 - 11:30 3.0 3.7 2.6 56 0.0 (s/d) 6.5 283 14.4 445
11:30 - 12:00 3.8 4.3 3.3 56 0.0 (s/d) 6.5 286 14.8 458
12:00 - 12:30 3.8 4.3 3.2 61 0.0 (s/d) 7.6 284 18.4 457
12:30 - 13:00 3.8 4.0 3.6 54 0.0 (s/d) 9.0 299 19.8 440
13:00 - 13:30 3.8 4.0 3.5 59 0.0 (s/d) 9.0 286 18.7 410
13:30 - 14:00 4.0 4.3 3.8 58 0.0 (s/d) 9.4 293 18.4 367
14:00 - 14:30 4.2 4.4 4.1 53 0.0 (s/d) 9.7 303 19.1 314
14:30 - 15:00 4.0 4.2 3.9 52 0.0 (s/d) 10.8 297 20.5 256
15:00 - 15:30 3.5 3.9 3.2 54 0.0 (s/d) 10.4 299 21.6 104
15:30 - 16:00 2.8 3.1 2.4 56 0.0 (s/d) 8.3 305 19.8 23
16:00 - 16:30 2.1 2.4 1.7 58 0.0 (s/d) 6.1 306 15.8 10
16:30 - 17:00 1.1 1.7 0.5 66 0.0 (s/d) 2.2 310 9.4 2
17:00 - 17:30 0.2 0.5 -0.2 74 0.0 (s/d) 0.7 315 4.3 0
17:30 - 18:00 0.8 1.3 0.3 75 0.0 (s/d) 3.2 303 9.4 0
18:00 - 18:30 1.2 1.3 1.0 77 0.0 (s/d) 2.9 304 8.3 0
18:30 - 19:00 1.1 1.4 0.8 80 0.0 (s/d) 4.0 306 10.4 0
19:00 - 19:30 1.2 1.3 1.0 82 0.0 (s/d) 3.6 305 10.8 0
19:30 - 20:00 0.9 1.2 0.6 83 0.0 (s/d) 3.2 315 11.5 0
20:00 - 20:30 1.0 1.2 0.6 83 0.0 (s/d) 5.4 307 15.5 0
20:30 - 21:00 0.4 1.0 -0.2 84 0.0 (s/d) 1.4 337 6.8 0
21:00 - 21:30 -0.9 -0.2 -1.4 88 0.0 (s/d) 0.7 23 3.2 0
21:30 - 22:00 0.2 0.6 -0.9 83 0.0 (s/d) 2.2 325 7.2 0
22:00 - 22:30 0.4 0.6 0.2 84 0.0 (s/d) 1.8 315 7.2 0
22:30 - 23:00 0.6 0.7 0.6 84 0.0 (s/d) 2.2 309 7.6 0

Les dades en taronja només han passat un control de qualitat automàtic. Resta pendent la seva validació definitiva.